Alcazar de San Juan, Spain
Current Conditions -  °F | °C
As of 5:00 PM on Wednesday 28 Jan 2015 (Local Time) from LEAO Reporting Station
Clear Clear  
Wind Chill: 57°   Ceiling: Unl
Heat Index: 57°   Visibility: 6mi
Dew Point: 32°   Wind: 10mph
Humidity: 38%   Direction: 280°W
Pressure: 30.18"   Gusts: NA
Location:  39.39°N, 3.21°W
Report Text: LEAO 281600Z 28009KT CAVOK 14/00 Q1022
Loading
Personal Weather Stations






























Interactive Weather Map New forecast layout! Learn more

10-Day Weather Forecast

Advertisements
Track Severe Weather on mobile